Dobrodošli na spletni strani vremenske postaje Senovo. Vse informacije so informativnega značaja, saj vremenska postaja ni del državne mreže meteoroloških postaj. OBVESTILO: Letni količini padavin navedeni na spletni strani je potrebno prišteti 98,1 mm, zaradi izgube podatkov.


Posebna pozornost v zvezi z vremenskimi dogajanji ni potrebna.    Posebna pozornost v zvezi z vremenskimi dogajanji ni potrebna.

Pogled proti Armezu več informacij Pogled proti Armezu


Lisca več informacij Lisca


Radar strel več informacij blitzortung!


Radar padavin več informacij rain snow radar


Obiščite še:

Template documentation
and downloads

And another site



Weather Underground, zgodovina - Tekstovno

Dnevni povzetek za Avgust 1, 2017 Enote:  Metrično    Angleško   Obe
« Predhodni Dan
Naslednji Dan »
Dnevni Tedenski Mesečni Letni Po meri
  Višja: Nižja: Povprečje:
Temperatura: 35.3 °C 17.2 °C 25.9 °C
Točka rosišča: 22.6 °C 16.2 °C 18.6 °C
Vlažnost: 96 % 37 % 69 %
Hitrost vetra: 6.6 km/h 0.0 km/h 1.5 km/h
Sunki vetra: 13.7 km/h - -
Veter:- - SSE
Zračni tlak: 1021.9 hPa 1016.8 hPa -
Padavine: 0.0 mm    
Historical Graphs
 
 
Tabelarni podarki za Avgust 1, 2017
Čas Temperatura Točka rosišča Zračni tlak Veter Hitrost vetra Sunki vetra Vlažnost Intenziteta padavin (urna)
00:02 20.6 °C 18.7 °C 1019.9 hPa Calm     89 % 0.0 mm
00:07 20.5 °C 18.6 °C 1019.9 hPa Calm     89 % 0.0 mm
00:12 20.4 °C 18.7 °C 1019.9 hPa Calm     90 % 0.0 mm
00:17 20.3 °C 18.6 °C 1019.9 hPa Calm     90 % 0.0 mm
00:22 20.3 °C 18.6 °C 1019.9 hPa Calm     90 % 0.0 mm
00:27 20.2 °C 18.3 °C 1019.9 hPa Calm     89 % 0.0 mm
00:28 20.2 °C 18.3 °C 1019.9 hPa Calm     89 % 0.0 mm
00:33 20.1 °C 18.4 °C 1019.9 hPa Calm     90 % 0.0 mm
00:38 20.1 °C 18.4 °C 1019.9 hPa Calm     90 % 0.0 mm
00:43 20.1 °C 18.4 °C 1019.9 hPa Calm     90 % 0.0 mm
00:48 20.0 °C 18.3 °C 1019.9 hPa Calm     90 % 0.0 mm
00:53 20.0 °C 18.3 °C 1019.9 hPa Calm     90 % 0.0 mm
00:58 19.9 °C 18.4 °C 1019.9 hPa NW 0.6 km/h 4.0 km/h 91 % 0.0 mm
01:03 19.9 °C 18.4 °C 1019.9 hPa NW 0.6 km/h 4.0 km/h 91 % 0.0 mm
01:08 19.8 °C 18.3 °C 1019.9 hPa Calm     91 % 0.0 mm
01:13 19.8 °C 18.3 °C 1019.9 hPa Calm     91 % 0.0 mm
01:18 19.8 °C 18.3 °C 1019.9 hPa Calm     91 % 0.0 mm
01:23 19.7 °C 18.4 °C 1019.9 hPa Calm     92 % 0.0 mm
01:28 19.7 °C 18.2 °C 1019.9 hPa Calm     91 % 0.0 mm
01:33 19.6 °C 18.1 °C 1019.9 hPa Calm     91 % 0.0 mm
01:38 19.6 °C 18.3 °C 1018.8 hPa Calm     92 % 0.0 mm
01:43 19.5 °C 18.2 °C 1018.8 hPa Calm     92 % 0.0 mm
01:48 19.5 °C 18.2 °C 1018.8 hPa Calm     92 % 0.0 mm
01:53 19.5 °C 18.2 °C 1018.8 hPa Calm     92 % 0.0 mm
01:58 19.4 °C 18.1 °C 1018.8 hPa Calm     92 % 0.0 mm
02:03 19.3 °C 17.9 °C 1018.8 hPa Calm     92 % 0.0 mm
02:08 19.3 °C 17.9 °C 1018.8 hPa Calm     92 % 0.0 mm
02:11 19.3 °C 17.9 °C 1018.8 hPa Calm     92 % 0.0 mm
02:16 19.2 °C 17.9 °C 1018.8 hPa Calm     92 % 0.0 mm
02:21 19.2 °C 17.9 °C 1019.9 hPa Calm     92 % 0.0 mm
02:26 19.1 °C 17.8 °C 1019.9 hPa Calm     92 % 0.0 mm
02:31 19.1 °C 17.8 °C 1019.9 hPa Calm     92 % 0.0 mm
02:36 19.0 °C 17.7 °C 1018.8 hPa Calm     92 % 0.0 mm
02:41 19.0 °C 17.7 °C 1018.8 hPa Calm     92 % 0.0 mm
02:46 18.9 °C 17.6 °C 1018.8 hPa Calm     92 % 0.0 mm
02:51 18.9 °C 17.6 °C 1019.9 hPa Calm     92 % 0.0 mm
02:56 18.8 °C 17.5 °C 1019.9 hPa Calm     92 % 0.0 mm
03:01 18.8 °C 17.5 °C 1019.9 hPa Calm     92 % 0.0 mm
03:06 18.7 °C 17.6 °C 1018.8 hPa Calm     93 % 0.0 mm
03:11 18.7 °C 17.6 °C 1018.8 hPa Calm     93 % 0.0 mm
03:16 18.7 °C 17.6 °C 1018.8 hPa Calm     93 % 0.0 mm
03:21 18.6 °C 17.4 °C 1019.9 hPa Calm     93 % 0.0 mm
03:26 18.6 °C 17.4 °C 1019.9 hPa Calm     93 % 0.0 mm
03:31 18.5 °C 17.3 °C 1019.9 hPa Calm     93 % 0.0 mm
03:36 18.5 °C 17.3 °C 1019.9 hPa Calm     93 % 0.0 mm
03:41 18.4 °C 17.2 °C 1019.9 hPa Calm     93 % 0.0 mm
03:46 18.4 °C 17.2 °C 1019.9 hPa Calm     93 % 0.0 mm
03:51 18.3 °C 17.2 °C 1018.8 hPa Calm     93 % 0.0 mm
03:56 18.2 °C 17.1 °C 1018.8 hPa Calm     93 % 0.0 mm
04:01 18.2 °C 17.1 °C 1018.8 hPa Calm     93 % 0.0 mm
04:06 18.2 °C 17.1 °C 1019.9 hPa Calm     93 % 0.0 mm
04:11 18.1 °C 16.9 °C 1019.9 hPa Calm     93 % 0.0 mm
04:16 18.1 °C 16.9 °C 1019.9 hPa Calm     93 % 0.0 mm
04:21 18.0 °C 16.8 °C 1019.9 hPa Calm     93 % 0.0 mm
04:26 18.0 °C 16.8 °C 1019.9 hPa Calm     93 % 0.0 mm
04:31 17.9 °C 16.9 °C 1019.9 hPa Calm     94 % 0.0 mm
04:36 17.9 °C 16.9 °C 1019.9 hPa Calm     94 % 0.0 mm
04:41 17.8 °C 16.8 °C 1019.9 hPa Calm     94 % 0.0 mm
04:46 17.8 °C 16.8 °C 1019.9 hPa Calm     94 % 0.0 mm
04:51 17.8 °C 16.8 °C 1018.8 hPa Calm     94 % 0.0 mm
04:56 17.7 °C 16.7 °C 1018.8 hPa Calm     94 % 0.0 mm
05:01 17.7 °C 16.7 °C 1018.8 hPa Calm     94 % 0.0 mm
05:06 17.6 °C 16.6 °C 1018.8 hPa Calm     94 % 0.0 mm
05:11 17.6 °C 16.6 °C 1018.8 hPa Calm     94 % 0.0 mm
05:16 17.5 °C 16.5 °C 1018.8 hPa Calm     94 % 0.0 mm
05:21 17.5 °C 16.5 °C 1018.8 hPa Calm     94 % 0.0 mm
05:26 17.5 °C 16.5 °C 1018.8 hPa Calm     94 % 0.0 mm
05:31 17.4 °C 16.4 °C 1018.8 hPa Calm     94 % 0.0 mm
05:36 17.4 °C 16.4 °C 1018.8 hPa Calm     94 % 0.0 mm
05:41 17.3 °C 16.3 °C 1018.8 hPa Calm     94 % 0.0 mm
05:46 17.4 °C 16.6 °C 1018.8 hPa Calm     95 % 0.0 mm
05:51 17.3 °C 16.5 °C 1019.9 hPa Calm     95 % 0.0 mm
05:56 17.3 °C 16.3 °C 1019.9 hPa Calm     94 % 0.0 mm
06:02 17.2 °C 16.2 °C 1019.9 hPa Calm     94 % 0.0 mm
06:07 17.2 °C 16.2 °C 1019.9 hPa Calm     94 % 0.0 mm
06:12 17.2 °C 16.2 °C 1019.9 hPa Calm     94 % 0.0 mm
06:17 17.3 °C 16.3 °C 1019.9 hPa Calm     94 % 0.0 mm
06:22 17.3 °C 16.5 °C 1019.9 hPa Calm     95 % 0.0 mm
06:27 17.3 °C 16.5 °C 1019.9 hPa Calm     95 % 0.0 mm
06:32 17.3 °C 16.5 °C 1019.9 hPa Calm     95 % 0.0 mm
06:37 17.4 °C 16.6 °C 1019.9 hPa Calm     95 % 0.0 mm
06:42 17.5 °C 16.7 °C 1019.9 hPa Calm     95 % 0.0 mm
06:47 17.5 °C 16.7 °C 1019.9 hPa Calm     95 % 0.0 mm
06:52 17.6 °C 16.8 °C 1019.9 hPa Calm     95 % 0.0 mm
06:57 17.7 °C 16.9 °C 1019.9 hPa Calm     95 % 0.0 mm
07:02 17.8 °C 17.2 °C 1019.9 hPa Calm     96 % 0.0 mm
07:07 18.0 °C 17.2 °C 1020.9 hPa Calm     95 % 0.0 mm
07:12 18.1 °C 17.3 °C 1020.9 hPa Calm     95 % 0.0 mm
07:17 18.3 °C 17.5 °C 1020.9 hPa Calm     95 % 0.0 mm
07:22 18.4 °C 17.8 °C 1020.9 hPa Calm     96 % 0.0 mm
07:27 18.6 °C 17.9 °C 1020.9 hPa Calm     96 % 0.0 mm
07:32 18.8 °C 18.2 °C 1020.9 hPa Calm     96 % 0.0 mm
07:37 19.0 °C 18.3 °C 1020.9 hPa Calm     96 % 0.0 mm
07:42 19.1 °C 18.4 °C 1020.9 hPa Calm     96 % 0.0 mm
07:47 19.3 °C 18.7 °C 1020.9 hPa Calm     96 % 0.0 mm
07:52 19.6 °C 18.9 °C 1020.9 hPa Calm     96 % 0.0 mm
07:57 19.9 °C 19.2 °C 1020.9 hPa Calm     96 % 0.0 mm
08:02 20.2 °C 19.4 °C 1020.9 hPa Calm     95 % 0.0 mm
08:07 20.5 °C 19.7 °C 1020.9 hPa Calm     95 % 0.0 mm
08:12 20.7 °C 19.7 °C 1020.9 hPa Calm     94 % 0.0 mm
08:17 21.0 °C 20.0 °C 1020.9 hPa Calm     94 % 0.0 mm
08:22 21.2 °C 20.0 °C 1021.9 hPa Calm     93 % 0.0 mm
08:27 21.5 °C 20.3 °C 1021.9 hPa Calm     93 % 0.0 mm
08:32 21.7 °C 20.5 °C 1021.9 hPa Calm     93 % 0.0 mm
08:37 22.1 °C 20.7 °C 1021.9 hPa Calm     92 % 0.0 mm
08:42 22.5 °C 20.9 °C 1021.9 hPa Calm     91 % 0.0 mm
08:47 23.0 °C 21.3 °C 1021.9 hPa Calm     90 % 0.0 mm
08:52 23.6 °C 21.9 °C 1020.9 hPa Calm     90 % 0.0 mm
08:57 24.0 °C 21.9 °C 1020.9 hPa Calm     88 % 0.0 mm
09:02 24.5 °C 22.2 °C 1020.9 hPa Calm     87 % 0.0 mm
09:07 25.0 °C 22.3 °C 1020.9 hPa Calm     85 % 0.0 mm
09:12 25.4 °C 22.3 °C 1020.9 hPa Calm     83 % 0.0 mm
09:17 25.7 °C 22.0 °C 1020.9 hPa Calm     80 % 0.0 mm
09:22 26.1 °C 21.9 °C 1020.9 hPa Calm     78 % 0.0 mm
09:27 26.5 °C 22.3 °C 1020.9 hPa Calm     78 % 0.0 mm
09:32 26.8 °C 22.4 °C 1020.9 hPa Calm     77 % 0.0 mm
09:37 27.2 °C 22.4 °C 1020.9 hPa Calm     75 % 0.0 mm
09:42 27.6 °C 22.6 °C 1020.9 hPa Calm     74 % 0.0 mm
09:47 27.8 °C 22.5 °C 1020.9 hPa Calm     73 % 0.0 mm
09:53 28.0 °C 22.2 °C 1020.9 hPa Calm     71 % 0.0 mm
09:58 28.4 °C 22.2 °C 1020.9 hPa SE 0.5 km/h 4.7 km/h 69 % 0.0 mm
10:03 28.6 °C 22.1 °C 1020.9 hPa SE 1.8 km/h 7.9 km/h 68 % 0.0 mm
10:08 28.9 °C 22.2 °C 1020.9 hPa SE 2.9 km/h 7.9 km/h 67 % 0.0 mm
10:13 29.1 °C 21.8 °C 1020.9 hPa ESE 2.9 km/h 6.1 km/h 65 % 0.0 mm
10:18 29.3 °C 21.5 °C 1020.9 hPa ESE 3.5 km/h 6.4 km/h 63 % 0.0 mm
10:23 29.5 °C 21.7 °C 1020.9 hPa ESE 3.2 km/h 6.4 km/h 63 % 0.0 mm
10:28 29.6 °C 21.3 °C 1020.9 hPa ESE 2.6 km/h 5.5 km/h 61 % 0.0 mm
10:33 29.8 °C 20.9 °C 1020.9 hPa ESE 1.6 km/h 5.5 km/h 59 % 0.0 mm
10:38 30.0 °C 21.1 °C 1020.9 hPa East 0.6 km/h 5.0 km/h 59 % 0.0 mm
10:43 30.0 °C 20.8 °C 1020.9 hPa ESE 0.8 km/h 5.8 km/h 58 % 0.0 mm
10:48 30.2 °C 20.4 °C 1020.9 hPa SE 1.4 km/h 5.8 km/h 56 % 0.0 mm
10:53 30.4 °C 20.3 °C 1020.9 hPa ESE 1.8 km/h 5.0 km/h 55 % 0.0 mm
10:55 30.5 °C 20.2 °C 1020.9 hPa ESE 1.4 km/h 5.0 km/h 54 % 0.0 mm
11:00 30.4 °C 19.4 °C 1020.9 hPa East 1.6 km/h 5.8 km/h 52 % 0.0 mm
11:05 30.6 °C 19.0 °C 1020.9 hPa ESE 3.2 km/h 6.9 km/h 50 % 0.0 mm
11:10 30.6 °C 19.3 °C 1020.9 hPa ESE 2.7 km/h 6.9 km/h 51 % 0.0 mm
11:15 30.7 °C 19.7 °C 1020.9 hPa East 1.6 km/h 5.8 km/h 52 % 0.0 mm
11:20 30.9 °C 19.6 °C 1019.9 hPa ESE 2.9 km/h 7.6 km/h 51 % 0.0 mm
11:25 31.1 °C 19.1 °C 1019.9 hPa ESE 3.5 km/h 7.6 km/h 49 % 0.0 mm
11:30 31.0 °C 19.1 °C 1019.9 hPa SSE 2.1 km/h 6.4 km/h 49 % 0.0 mm
11:35 31.0 °C 19.1 °C 1019.9 hPa SW 2.4 km/h 9.7 km/h 49 % 0.0 mm
11:40 31.2 °C 19.6 °C 1019.9 hPa SW 2.9 km/h 9.7 km/h 50 % 0.0 mm
11:45 31.3 °C 19.3 °C 1019.9 hPa SSW 1.8 km/h 5.8 km/h 49 % 0.0 mm
11:50 31.5 °C 19.5 °C 1019.9 hPa South 3.2 km/h 7.9 km/h 49 % 0.0 mm
11:55 31.5 °C 19.2 °C 1019.9 hPa SSW 3.1 km/h 7.9 km/h 48 % 0.0 mm
12:00 31.7 °C 19.0 °C 1019.9 hPa ESE 1.9 km/h 12.2 km/h 47 % 0.0 mm
12:05 31.7 °C 19.3 °C 1019.9 hPa ESE 2.6 km/h 12.2 km/h 48 % 0.0 mm
12:10 31.9 °C 19.8 °C 1019.9 hPa ESE 2.9 km/h 9.7 km/h 49 % 0.0 mm
12:15 31.8 °C 18.8 °C 1019.9 hPa NNW 4.5 km/h 9.7 km/h 46 % 0.0 mm
12:20 32.0 °C 19.6 °C 1019.9 hPa NNW 4.2 km/h 9.0 km/h 48 % 0.0 mm
12:25 32.0 °C 19.3 °C 1019.9 hPa SE 1.9 km/h 5.8 km/h 47 % 0.0 mm
12:30 32.1 °C 19.4 °C 1019.9 hPa ENE 1.9 km/h 5.8 km/h 47 % 0.0 mm
12:35 32.3 °C 19.6 °C 1020.9 hPa ENE 2.3 km/h 5.8 km/h 47 % 0.0 mm
12:40 32.3 °C 19.6 °C 1020.9 hPa East 2.9 km/h 6.9 km/h 47 % 0.0 mm
12:45 32.4 °C 19.3 °C 1020.9 hPa ENE 3.5 km/h 6.9 km/h 46 % 0.0 mm
12:50 32.5 °C 19.7 °C 1019.9 hPa NNW 3.7 km/h 7.9 km/h 47 % 0.0 mm
12:55 32.7 °C 20.3 °C 1019.9 hPa SW 4.7 km/h 9.0 km/h 48 % 0.0 mm
13:00 32.8 °C 19.7 °C 1019.9 hPa SW 5.0 km/h 10.1 km/h 46 % 0.0 mm
13:05 32.7 °C 19.6 °C 1019.9 hPa WSW 5.3 km/h 10.1 km/h 46 % 0.0 mm
13:08 32.8 °C 19.7 °C 1019.9 hPa WSW 5.1 km/h 10.1 km/h 46 % 0.0 mm
13:13 33.0 °C 19.5 °C 1019.9 hPa SSE 3.9 km/h 7.9 km/h 45 % 0.0 mm
13:18 33.1 °C 19.6 °C 1019.9 hPa ESE 3.1 km/h 7.9 km/h 45 % 0.0 mm
13:23 33.0 °C 19.5 °C 1019.9 hPa East 3.4 km/h 9.3 km/h 45 % 0.0 mm
13:28 33.1 °C 19.6 °C 1019.9 hPa East 4.3 km/h 10.5 km/h 45 % 0.0 mm
13:33 33.1 °C 19.2 °C 1019.9 hPa ESE 4.0 km/h 10.5 km/h 44 % 0.0 mm
13:38 33.1 °C 19.2 °C 1019.9 hPa ENE 3.4 km/h 9.3 km/h 44 % 0.0 mm
13:43 33.2 °C 19.3 °C 1019.9 hPa ENE 3.1 km/h 9.3 km/h 44 % 0.0 mm
13:48 33.3 °C 19.4 °C 1019.9 hPa ESE 2.4 km/h 10.5 km/h 44 % 0.0 mm
13:53 33.5 °C 19.2 °C 1018.8 hPa ESE 3.5 km/h 10.5 km/h 43 % 0.0 mm
13:58 33.3 °C 19.0 °C 1018.8 hPa East 4.0 km/h 9.3 km/h 43 % 0.0 mm
14:03 33.2 °C 18.9 °C 1018.8 hPa NE 2.4 km/h 7.9 km/h 43 % 0.0 mm
14:08 33.1 °C 18.8 °C 1019.9 hPa North 3.2 km/h 6.9 km/h 43 % 0.0 mm
14:13 33.2 °C 18.9 °C 1019.9 hPa NE 3.7 km/h 9.3 km/h 43 % 0.0 mm
14:18 33.2 °C 18.9 °C 1019.9 hPa ENE 3.4 km/h 9.3 km/h 43 % 0.0 mm
14:23 33.4 °C 19.1 °C 1019.9 hPa ESE 3.5 km/h 9.0 km/h 43 % 0.0 mm
14:28 33.6 °C 19.3 °C 1019.9 hPa SE 4.2 km/h 12.2 km/h 43 % 0.0 mm
14:33 33.8 °C 19.5 °C 1019.9 hPa SE 5.0 km/h 12.2 km/h 43 % 0.0 mm
14:38 33.9 °C 19.6 °C 1018.8 hPa SE 5.1 km/h 9.7 km/h 43 % 0.0 mm
14:43 34.0 °C 18.9 °C 1018.8 hPa SE 4.3 km/h 9.7 km/h 41 % 0.0 mm
14:48 33.9 °C 19.2 °C 1018.8 hPa ESE 3.5 km/h 9.7 km/h 42 % 0.0 mm
14:53 34.0 °C 18.9 °C 1018.8 hPa ESE 4.8 km/h 11.9 km/h 41 % 0.0 mm
14:58 34.2 °C 19.1 °C 1018.8 hPa SE 5.0 km/h 11.9 km/h 41 % 0.0 mm
15:03 34.3 °C 19.2 °C 1018.8 hPa SE 3.9 km/h 6.4 km/h 41 % 0.0 mm
15:08 34.3 °C 19.2 °C 1018.2 hPa SE 3.7 km/h 6.9 km/h 41 % 0.0 mm
15:13 34.3 °C 19.2 °C 1018.2 hPa SE 4.3 km/h 10.8 km/h 41 % 0.0 mm
15:18 34.5 °C 19.3 °C 1018.2 hPa ESE 5.5 km/h 10.8 km/h 41 % 0.0 mm
15:23 34.3 °C 18.8 °C 1018.2 hPa East 4.5 km/h 9.3 km/h 40 % 0.0 mm
15:28 34.5 °C 18.9 °C 1018.2 hPa East 4.8 km/h 10.1 km/h 40 % 0.0 mm
15:33 34.6 °C 19.1 °C 1018.2 hPa ESE 5.5 km/h 10.1 km/h 40 % 0.0 mm
15:38 34.5 °C 18.6 °C 1018.2 hPa ESE 4.2 km/h 9.0 km/h 39 % 0.0 mm
15:43 34.5 °C 18.6 °C 1018.2 hPa ENE 2.7 km/h 6.1 km/h 39 % 0.0 mm
15:48 34.6 °C 18.6 °C 1018.2 hPa SE 3.9 km/h 11.9 km/h 39 % 0.0 mm
15:49 34.6 °C 18.6 °C 1018.2 hPa SE 3.9 km/h 11.9 km/h 39 % 0.0 mm
15:54 34.7 °C 18.7 °C 1018.2 hPa SSE 4.7 km/h 11.9 km/h 39 % 0.0 mm
15:59 34.8 °C 18.8 °C 1018.2 hPa South 3.9 km/h 8.7 km/h 39 % 0.0 mm
16:04 34.9 °C 18.9 °C 1018.2 hPa SSE 3.7 km/h 6.4 km/h 39 % 0.0 mm
16:09 35.0 °C 18.6 °C 1018.2 hPa SE 2.4 km/h 8.7 km/h 38 % 0.0 mm
16:14 35.1 °C 18.7 °C 1018.2 hPa SE 2.9 km/h 10.1 km/h 38 % 0.0 mm
16:19 35.1 °C 18.7 °C 1018.2 hPa SSE 2.9 km/h 10.1 km/h 38 % 0.0 mm
16:24 35.1 °C 18.7 °C 1016.8 hPa ESE 2.9 km/h 6.9 km/h 38 % 0.0 mm
16:29 35.1 °C 18.2 °C 1016.8 hPa East 3.2 km/h 6.9 km/h 37 % 0.0 mm
16:34 35.2 °C 18.7 °C 1016.8 hPa East 3.1 km/h 9.3 km/h 38 % 0.0 mm
16:39 35.1 °C 18.2 °C 1018.2 hPa ESE 3.4 km/h 9.3 km/h 37 % 0.0 mm
16:44 35.2 °C 18.7 °C 1018.2 hPa SE 2.4 km/h 5.8 km/h 38 % 0.0 mm
16:49 35.2 °C 18.3 °C 1018.2 hPa SE 2.7 km/h 6.9 km/h 37 % 0.0 mm
16:54 35.3 °C 18.8 °C 1016.8 hPa SE 4.5 km/h 10.5 km/h 38 % 0.0 mm
16:59 35.2 °C 18.3 °C 1016.8 hPa SSE 6.1 km/h 10.5 km/h 37 % 0.0 mm
17:04 35.2 °C 18.3 °C 1016.8 hPa SSE 5.3 km/h 10.1 km/h 37 % 0.0 mm
17:09 35.2 °C 18.3 °C 1018.2 hPa SE 3.7 km/h 9.0 km/h 37 % 0.0 mm
17:14 35.2 °C 18.7 °C 1018.2 hPa SE 3.7 km/h 9.0 km/h 38 % 0.0 mm
17:19 35.3 °C 18.4 °C 1018.2 hPa SE 4.3 km/h 10.8 km/h 37 % 0.0 mm
17:24 35.2 °C 18.3 °C 1018.2 hPa ESE 3.9 km/h 10.8 km/h 37 % 0.0 mm
17:29 35.1 °C 18.7 °C 1018.2 hPa SE 5.5 km/h 12.2 km/h 38 % 0.0 mm
17:34 35.0 °C 18.6 °C 1018.2 hPa SE 6.6 km/h 12.2 km/h 38 % 0.0 mm
17:39 35.0 °C 18.6 °C 1018.2 hPa SSE 5.6 km/h 13.0 km/h 38 % 0.0 mm
17:44 34.9 °C 18.5 °C 1018.2 hPa SE 5.1 km/h 13.0 km/h 38 % 0.0 mm
17:49 34.7 °C 18.3 °C 1018.2 hPa SE 4.7 km/h 11.9 km/h 38 % 0.0 mm
17:54 34.7 °C 18.3 °C 1016.8 hPa SSE 4.0 km/h 11.9 km/h 38 % 0.0 mm
17:59 34.6 °C 18.2 °C 1016.8 hPa SSE 3.9 km/h 7.9 km/h 38 % 0.0 mm
18:04 34.4 °C 18.1 °C 1016.8 hPa SE 4.2 km/h 7.6 km/h 38 % 0.0 mm
18:09 34.2 °C 18.3 °C 1018.2 hPa ESE 4.3 km/h 9.0 km/h 39 % 0.0 mm
18:14 33.9 °C 18.0 °C 1018.2 hPa SE 5.6 km/h 11.9 km/h 39 % 0.0 mm
18:19 33.6 °C 17.7 °C 1018.2 hPa SE 5.3 km/h 11.9 km/h 39 % 0.0 mm
18:24 33.2 °C 17.4 °C 1018.2 hPa SE 4.8 km/h 9.0 km/h 39 % 0.0 mm
18:29 32.9 °C 17.5 °C 1018.2 hPa SE 5.8 km/h 9.7 km/h 40 % 0.0 mm
18:34 32.7 °C 17.3 °C 1018.2 hPa ESE 5.6 km/h 9.7 km/h 40 % 0.0 mm
18:39 32.5 °C 17.6 °C 1016.8 hPa SE 5.5 km/h 13.7 km/h 41 % 0.0 mm
18:44 32.3 °C 17.4 °C 1016.8 hPa SSE 4.3 km/h 13.7 km/h 41 % 0.0 mm
18:49 32.1 °C 17.2 °C 1016.8 hPa SE 2.7 km/h 9.0 km/h 41 % 0.0 mm
18:54 32.0 °C 17.1 °C 1016.8 hPa SSE 3.5 km/h 12.2 km/h 41 % 0.0 mm
18:59 31.8 °C 17.3 °C 1016.8 hPa SE 4.3 km/h 12.2 km/h 42 % 0.0 mm
19:04 31.7 °C 17.2 °C 1016.8 hPa SE 4.5 km/h 9.7 km/h 42 % 0.0 mm
19:09 31.5 °C 17.4 °C 1018.2 hPa SE 4.0 km/h 9.3 km/h 43 % 0.0 mm
19:14 31.2 °C 17.5 °C 1018.2 hPa SE 3.4 km/h 9.3 km/h 44 % 0.0 mm
19:19 30.9 °C 18.3 °C 1018.2 hPa SE 1.9 km/h 9.3 km/h 47 % 0.0 mm
19:24 30.6 °C 18.3 °C 1018.2 hPa East 1.9 km/h 5.8 km/h 48 % 0.0 mm
19:29 30.2 °C 18.3 °C 1018.2 hPa ESE 2.4 km/h 9.7 km/h 49 % 0.0 mm
19:34 29.9 °C 18.7 °C 1018.2 hPa NW 2.7 km/h 9.7 km/h 51 % 0.0 mm
19:39 29.7 °C 18.5 °C 1018.2 hPa NW 3.1 km/h 6.4 km/h 51 % 0.0 mm
19:44 29.4 °C 18.5 °C 1018.2 hPa NNW 2.1 km/h 5.8 km/h 52 % 0.0 mm
19:49 29.2 °C 18.6 °C 1018.2 hPa West 1.0 km/h 5.0 km/h 53 % 0.0 mm
19:54 28.9 °C 18.7 °C 1018.2 hPa NNW 1.6 km/h 6.1 km/h 54 % 0.0 mm
19:59 28.7 °C 19.1 °C 1018.2 hPa NNW 1.3 km/h 6.1 km/h 56 % 0.0 mm
20:04 28.6 °C 18.9 °C 1018.2 hPa NW 0.8 km/h 5.0 km/h 56 % 0.0 mm
20:09 28.2 °C 18.6 °C 1018.2 hPa NW 1.9 km/h 5.0 km/h 56 % 0.0 mm
20:14 27.9 °C 18.9 °C 1018.2 hPa NW 2.6 km/h 5.0 km/h 58 % 0.0 mm
20:19 27.8 °C 18.5 °C 1018.2 hPa NNW 2.1 km/h 5.0 km/h 57 % 0.0 mm
20:24 27.6 °C 18.6 °C 1018.2 hPa NE 0.8 km/h 5.0 km/h 58 % 0.0 mm
20:29 27.4 °C 18.7 °C 1018.2 hPa ENE 1.3 km/h 5.0 km/h 59 % 0.0 mm
20:30 27.4 °C 18.7 °C 1018.2 hPa NE 1.3 km/h 5.0 km/h 59 % 0.0 mm
20:35 27.2 °C 18.5 °C 1018.2 hPa North 1.8 km/h 4.7 km/h 59 % 0.0 mm
20:40 27.0 °C 18.6 °C 1018.2 hPa NW 1.4 km/h 5.0 km/h 60 % 0.0 mm
20:45 26.8 °C 18.9 °C 1018.2 hPa NW 1.3 km/h 5.0 km/h 62 % 0.0 mm
20:50 26.6 °C 18.7 °C 1018.2 hPa NW 1.6 km/h 5.8 km/h 62 % 0.0 mm
20:55 26.4 °C 18.8 °C 1018.2 hPa NW 1.6 km/h 5.8 km/h 63 % 0.0 mm
21:00 26.2 °C 18.8 °C 1018.2 hPa NW 0.5 km/h 2.6 km/h 64 % 0.0 mm
21:05 26.0 °C 18.7 °C 1018.2 hPa Calm     64 % 0.0 mm
21:10 25.7 °C 18.9 °C 1018.2 hPa Calm     66 % 0.0 mm
21:15 25.5 °C 18.7 °C 1018.2 hPa Calm     66 % 0.0 mm
21:20 25.2 °C 18.6 °C 1016.8 hPa Calm     67 % 0.0 mm
21:25 25.0 °C 18.4 °C 1016.8 hPa Calm     67 % 0.0 mm
21:30 24.8 °C 18.5 °C 1016.8 hPa Calm     68 % 0.0 mm
21:35 24.7 °C 18.6 °C 1018.2 hPa Calm     69 % 0.0 mm
21:40 24.5 °C 18.7 °C 1018.2 hPa Calm     70 % 0.0 mm
21:45 24.3 °C 18.5 °C 1018.2 hPa Calm     70 % 0.0 mm
21:51 24.0 °C 18.4 °C 1018.2 hPa Calm     71 % 0.0 mm
21:56 23.9 °C 18.6 °C 1018.2 hPa Calm     72 % 0.0 mm
22:01 23.7 °C 18.6 °C 1018.2 hPa Calm     73 % 0.0 mm
22:06 23.6 °C 18.5 °C 1016.8 hPa Calm     73 % 0.0 mm
22:08 23.5 °C 18.4 °C 1016.8 hPa Calm     73 % 0.0 mm
22:09 23.5 °C 18.4 °C 1016.8 hPa Calm     73 % 0.0 mm
22:10 23.4 °C 18.3 °C 1016.8 hPa Calm     73 % 0.0 mm
22:13 23.4 °C 18.5 °C 1016.8 hPa Calm     74 % 0.0 mm
22:18 23.3 °C 18.4 °C 1016.8 hPa Calm     74 % 0.0 mm
22:23 23.2 °C 18.3 °C 1018.2 hPa Calm     74 % 0.0 mm
22:28 23.0 °C 18.3 °C 1018.2 hPa Calm     75 % 0.0 mm
22:33 22.8 °C 18.3 °C 1018.2 hPa Calm     76 % 0.0 mm
22:38 22.8 °C 18.6 °C 1018.2 hPa Calm     77 % 0.0 mm
22:43 22.7 °C 18.2 °C 1018.2 hPa Calm     76 % 0.0 mm
22:48 22.7 °C 18.4 °C 1018.2 hPa Calm     77 % 0.0 mm
22:53 22.6 °C 18.6 °C 1018.2 hPa Calm     78 % 0.0 mm
22:58 22.5 °C 18.4 °C 1018.2 hPa Calm     78 % 0.0 mm
23:03 22.3 °C 18.3 °C 1018.2 hPa Calm     78 % 0.0 mm
23:08 22.2 °C 18.2 °C 1018.2 hPa Calm     78 % 0.0 mm
23:13 22.0 °C 18.0 °C 1018.2 hPa Calm     78 % 0.0 mm
23:18 22.0 °C 18.0 °C 1018.2 hPa Calm     78 % 0.0 mm
23:23 21.8 °C 18.0 °C 1018.2 hPa Calm     79 % 0.0 mm
23:28 21.7 °C 18.1 °C 1018.2 hPa Calm     80 % 0.0 mm
23:33 21.6 °C 18.0 °C 1018.2 hPa Calm     80 % 0.0 mm
23:38 21.5 °C 17.9 °C 1016.8 hPa Calm     80 % 0.0 mm
23:43 21.5 °C 17.9 °C 1016.8 hPa Calm     80 % 0.0 mm
23:48 21.4 °C 17.8 °C 1016.8 hPa Calm     80 % 0.0 mm
23:53 21.3 °C 17.7 °C 1018.2 hPa Calm     80 % 0.0 mm
23:58 21.2 °C 17.8 °C 1018.2 hPa Calm     81 % 0.0 mm
Vremenska postaja Senovo
Podatki zbrani iz Weather Underground - 3 mb

Script developed by  Jim McMurry - jmcmurry@mwt.net Adapted for the template by  Wim van der Kuil - Leuven-Template.eu

Vremenski podatki so objavljeni na:

WeatherCloud

Weather Underground

AWEKAS

HAMweather, WeatherForYou, PWS Weather

MapView

Geostik

Slovenia weather network

Oprema, ki se uporablja:

Vremenski program
Cumulus

Cumulus